createdAt,value
2022-11-05T00:00:36.243Z,85.44
2022-11-05T00:04:15.758Z,84.47
2022-11-05T00:08:09.985Z,84.45
2022-11-05T00:11:45.547Z,84.58
2022-11-05T00:15:24.967Z,83.75
2022-11-05T00:19:06.607Z,84.19
2022-11-05T00:22:46.296Z,84.02
2022-11-05T00:26:11.503Z,84.94
2022-11-05T00:29:33.756Z,84.80
2022-11-05T00:32:55.979Z,85.22
2022-11-05T00:36:18.931Z,85.66
2022-11-05T00:39:40.702Z,85.12
2022-11-05T00:43:20.277Z,85.92
2022-11-05T00:46:42.317Z,86.50
2022-11-05T00:50:03.738Z,86.20
2022-11-05T00:53:27.289Z,87.46
2022-11-05T00:56:49.124Z,87.94
2022-11-05T01:00:12.610Z,88.37
2022-11-05T01:03:37.197Z,89.33
2022-11-05T01:06:58.951Z,90.14
2022-11-05T01:10:23.566Z,90.29
2022-11-05T01:13:45.723Z,90.16
2022-11-05T01:17:07.642Z,90.37
2022-11-05T01:20:29.719Z,90.57
2022-11-05T01:23:51.855Z,91.22
2022-11-05T01:27:14.858Z,91.72
2022-11-05T01:30:37.381Z,91.78
2022-11-05T01:34:01.925Z,91.84
2022-11-05T01:37:24.194Z,91.94
2022-11-05T01:40:46.404Z,92.41
2022-11-05T01:44:40.526Z,92.58
2022-11-05T01:48:07.923Z,92.96
2022-11-05T01:51:30.166Z,92.16
2022-11-05T01:54:52.334Z,92.65
2022-11-05T01:58:17.771Z,93.01
2022-11-05T02:01:39.694Z,92.67
2022-11-05T02:05:05.204Z,93.53
2022-11-05T02:08:39.256Z,93.34
2022-11-05T02:12:01.144Z,94.14
2022-11-05T02:15:47.828Z,93.61
2022-11-05T02:19:31.616Z,93.63
2022-11-05T02:23:42.289Z,93.48
2022-11-05T02:27:17.066Z,92.78
2022-11-05T02:30:47.853Z,93.33
2022-11-05T02:34:20.087Z,93.45
2022-11-05T02:37:47.387Z,93.22
2022-11-05T02:41:18.213Z,93.03
2022-11-05T02:44:49.044Z,93.54
2022-11-05T02:48:17.939Z,93.41
2022-11-05T02:51:47.585Z,93.92
2022-11-05T02:55:20.243Z,94.15
2022-11-05T02:58:41.882Z,94.23
2022-11-05T03:02:05.335Z,94.23
2022-11-05T03:05:38.131Z,93.86
2022-11-05T03:09:28.655Z,93.85
2022-11-05T03:13:05.355Z,93.29
2022-11-05T03:16:36.606Z,93.55
2022-11-05T03:20:08.616Z,93.48
2022-11-05T03:23:37.645Z,93.60
2022-11-05T03:27:05.365Z,93.46
2022-11-05T03:30:27.670Z,93.52
2022-11-05T03:33:53.073Z,93.16
2022-11-05T03:37:18.271Z,93.15
2022-11-05T03:40:44.139Z,93.60
2022-11-05T03:44:09.226Z,93.40
2022-11-05T03:47:36.624Z,93.22
2022-11-05T03:51:03.989Z,93.47
2022-11-05T03:54:26.246Z,93.61
2022-11-05T03:57:52.728Z,93.46
2022-11-05T04:01:15.806Z,93.62
2022-11-05T04:04:37.817Z,93.67
2022-11-05T04:08:17.280Z,93.50
2022-11-05T04:11:57.154Z,93.32
2022-11-05T04:15:20.836Z,93.48
2022-11-05T04:18:42.152Z,93.61
2022-11-05T04:22:21.797Z,93.55
2022-11-05T04:25:43.903Z,93.74
2022-11-05T04:29:24.054Z,93.71
2022-11-05T04:32:59.089Z,93.74
2022-11-05T04:36:20.835Z,93.58
2022-11-05T04:39:42.535Z,93.87
2022-11-05T04:43:05.163Z,93.76
2022-11-05T04:46:28.479Z,93.73
2022-11-05T04:49:51.538Z,93.76
2022-11-05T04:53:13.826Z,93.30
2022-11-05T04:56:35.842Z,93.20
2022-11-05T04:59:58.178Z,92.64
2022-11-05T05:03:20.153Z,92.40
2022-11-05T05:06:43.695Z,91.86
2022-11-05T05:10:06.842Z,91.37
2022-11-05T05:13:29.008Z,91.45
2022-11-05T05:16:51.146Z,91.18
2022-11-05T05:20:31.076Z,90.90
2022-11-05T05:23:54.368Z,89.86
2022-11-05T05:27:16.439Z,89.86
2022-11-05T05:30:38.598Z,89.95
2022-11-05T05:34:00.556Z,88.13
2022-11-05T05:37:22.287Z,88.67
2022-11-05T05:40:45.957Z,88.77
2022-11-05T05:44:08.171Z,88.89
2022-11-05T05:47:29.949Z,88.39
2022-11-05T05:50:51.999Z,88.48
2022-11-05T05:54:13.602Z,87.74
2022-11-05T05:57:36.859Z,88.08
2022-11-05T06:01:02.380Z,88.33
2022-11-05T06:04:24.305Z,88.55
2022-11-05T06:07:46.291Z,88.25
2022-11-05T06:11:08.705Z,88.04
2022-11-05T06:14:31.815Z,86.11
2022-11-05T06:17:53.690Z,85.36
2022-11-05T06:21:18.100Z,84.97
2022-11-05T06:24:40.144Z,85.19
2022-11-05T06:28:02.182Z,84.81
2022-11-05T06:31:25.348Z,85.59
2022-11-05T06:34:47.200Z,86.49
2022-11-05T06:38:09.305Z,86.21
2022-11-05T06:41:30.969Z,86.51
2022-11-05T06:44:53.313Z,86.17
2022-11-05T06:48:17.024Z,86.31
2022-11-05T06:51:39.065Z,86.36
2022-11-05T06:55:00.701Z,87.08
2022-11-05T06:58:23.059Z,85.06
2022-11-05T07:01:45.175Z,85.41
2022-11-05T07:05:11.265Z,85.66
2022-11-05T07:08:34.052Z,85.66
2022-11-05T07:11:56.422Z,85.43
2022-11-05T07:15:17.995Z,84.48
2022-11-05T07:18:39.845Z,84.37
2022-11-05T07:22:03.230Z,83.37
2022-11-05T07:25:25.119Z,83.34
2022-11-05T07:28:47.091Z,84.56
2022-11-05T07:32:09.494Z,85.10
2022-11-05T07:35:31.865Z,84.25
2022-11-05T07:39:00.171Z,84.82
2022-11-05T07:42:22.920Z,83.28
2022-11-05T07:45:46.488Z,83.75
2022-11-05T07:49:08.687Z,83.90
2022-11-05T07:52:32.653Z,83.54
2022-11-05T07:55:57.318Z,83.99
2022-11-05T07:59:19.526Z,83.55
2022-11-05T08:02:42.016Z,82.45
2022-11-05T08:06:04.449Z,83.18
2022-11-05T08:09:26.129Z,82.81
2022-11-05T08:12:49.761Z,82.05
2022-11-05T08:16:12.072Z,82.53
2022-11-05T08:19:34.032Z,81.59
2022-11-05T08:22:57.052Z,82.23
2022-11-05T08:26:19.704Z,82.11
2022-11-05T08:29:43.026Z,82.05
2022-11-05T08:33:06.639Z,82.53
2022-11-05T08:36:28.494Z,82.60
2022-11-05T08:39:50.546Z,82.22
2022-11-05T08:43:14.568Z,81.49
2022-11-05T08:46:41.595Z,82.45
2022-11-05T08:50:03.871Z,81.70
2022-11-05T08:53:25.832Z,81.89
2022-11-05T08:56:47.821Z,81.51
2022-11-05T09:00:11.463Z,81.11
2022-11-05T09:03:34.968Z,81.73
2022-11-05T09:07:23.039Z,81.07
2022-11-05T09:10:45.811Z,81.60
2022-11-05T09:14:07.716Z,81.03
2022-11-05T09:17:30.027Z,81.14
2022-11-05T09:20:54.254Z,81.24
2022-11-05T09:24:16.520Z,81.23
2022-11-05T09:27:38.834Z,81.07
2022-11-05T09:31:00.839Z,81.26
2022-11-05T09:34:22.799Z,81.74
2022-11-05T09:37:45.903Z,82.00
2022-11-05T09:41:14.073Z,81.87
2022-11-05T09:44:42.187Z,81.21
2022-11-05T09:48:08.816Z,81.38
2022-11-05T09:51:30.821Z,79.75
2022-11-05T09:54:55.671Z,79.48
2022-11-05T09:58:25.998Z,78.33
2022-11-05T10:01:52.748Z,78.37
2022-11-05T10:05:15.748Z,79.06
2022-11-05T10:08:42.823Z,78.12
2022-11-05T10:12:08.909Z,78.24
2022-11-05T10:15:34.285Z,78.29
2022-11-05T10:19:02.051Z,78.29
2022-11-05T10:22:23.682Z,78.21
2022-11-05T10:25:50.161Z,77.93
2022-11-05T10:29:17.318Z,78.04
2022-11-05T10:32:41.084Z,77.60
2022-11-05T10:36:06.346Z,77.97
2022-11-05T10:39:28.921Z,78.28
2022-11-05T10:42:58.250Z,77.66
2022-11-05T10:46:30.036Z,77.80
2022-11-05T10:49:58.993Z,78.53
2022-11-05T10:53:24.123Z,79.05
2022-11-05T10:56:45.897Z,78.20
2022-11-05T11:00:22.941Z,77.83
2022-11-05T11:03:48.982Z,78.69
2022-11-05T11:07:23.359Z,78.38
2022-11-05T11:10:51.259Z,78.83
2022-11-05T11:14:22.503Z,78.31
2022-11-05T11:17:44.660Z,79.16
2022-11-05T11:21:16.993Z,77.74
2022-11-05T11:24:40.609Z,78.52
2022-11-05T11:28:05.151Z,78.37
2022-11-05T11:31:29.421Z,78.45
2022-11-05T11:34:54.471Z,78.43
2022-11-05T11:38:18.810Z,78.57
2022-11-05T11:41:44.239Z,78.13
2022-11-05T11:45:15.773Z,77.71
2022-11-05T11:48:38.139Z,77.98
2022-11-05T11:52:03.765Z,79.24
2022-11-05T11:55:30.333Z,78.31
2022-11-05T11:58:54.114Z,78.92
2022-11-05T12:03:00.500Z,78.45
2022-11-05T12:06:31.616Z,79.39
2022-11-05T12:10:05.146Z,78.99
2022-11-05T12:13:44.643Z,79.15
2022-11-05T12:17:27.347Z,78.61
2022-11-05T12:21:07.497Z,78.94
2022-11-05T12:24:56.798Z,79.29
2022-11-05T12:28:26.881Z,78.53
2022-11-05T12:31:57.019Z,79.17
2022-11-05T12:35:36.130Z,79.44
2022-11-05T12:39:19.817Z,79.35
2022-11-05T12:42:58.451Z,79.65
2022-11-05T12:46:29.664Z,80.29
2022-11-05T12:50:05.738Z,79.89
2022-11-05T12:53:45.871Z,80.31
2022-11-05T12:57:12.838Z,80.40
2022-11-05T13:00:38.510Z,80.22
2022-11-05T13:04:02.881Z,80.12
2022-11-05T13:07:31.419Z,79.58
2022-11-05T13:10:58.563Z,80.10
2022-11-05T13:14:25.137Z,80.53
2022-11-05T13:17:53.211Z,80.23
2022-11-05T13:21:17.183Z,80.79
2022-11-05T13:24:47.163Z,80.63
2022-11-05T13:28:22.690Z,80.73
2022-11-05T13:31:50.169Z,80.66
2022-11-05T13:35:18.594Z,81.21
2022-11-05T13:39:00.406Z,81.66
2022-11-05T13:42:55.099Z,82.35
2022-11-05T13:46:43.741Z,82.50
2022-11-05T13:50:45.304Z,82.23
2022-11-05T13:54:26.290Z,82.87
2022-11-05T13:58:24.277Z,82.46
2022-11-05T14:01:50.870Z,82.82
2022-11-05T14:05:24.497Z,82.43
2022-11-05T14:08:47.597Z,82.27
2022-11-05T14:12:21.177Z,82.52
2022-11-05T14:15:56.821Z,82.42
2022-11-05T14:19:37.946Z,82.30
2022-11-05T14:23:44.035Z,82.31
2022-11-05T14:27:45.874Z,82.47
2022-11-05T14:32:08.410Z,82.39
2022-11-05T14:35:40.770Z,82.25
2022-11-05T14:39:19.006Z,82.25
2022-11-05T14:42:40.899Z,82.52
2022-11-05T14:46:06.247Z,82.39
2022-11-05T14:49:31.536Z,82.41
2022-11-05T14:52:57.036Z,82.08
2022-11-05T14:56:20.513Z,82.13
2022-11-05T15:00:03.229Z,81.94
2022-11-05T15:03:42.598Z,81.95
2022-11-05T15:07:38.878Z,82.01
2022-11-05T15:11:12.786Z,81.99
2022-11-05T15:14:39.339Z,81.66
2022-11-05T15:18:05.883Z,81.98
2022-11-05T15:21:31.577Z,82.63
2022-11-05T15:24:53.802Z,82.74
2022-11-05T15:28:25.260Z,82.14
2022-11-05T15:31:48.227Z,82.09
2022-11-05T15:35:20.294Z,81.41
2022-11-05T15:38:56.646Z,81.67
2022-11-05T15:42:27.697Z,81.31
2022-11-05T15:46:08.795Z,81.71
2022-11-05T15:49:31.355Z,81.67
2022-11-05T15:52:56.688Z,81.97
2022-11-05T15:56:28.005Z,81.90
2022-11-05T15:59:50.229Z,81.81
2022-11-05T16:03:27.769Z,81.46
2022-11-05T16:06:53.798Z,82.11
2022-11-05T16:10:20.598Z,81.78
2022-11-05T16:13:43.271Z,82.05
2022-11-05T16:17:18.638Z,81.93
2022-11-05T16:20:41.986Z,82.13
2022-11-05T16:24:03.690Z,82.20
2022-11-05T16:27:25.827Z,82.39
2022-11-05T16:30:54.870Z,82.14
2022-11-05T16:34:26.952Z,82.40
2022-11-05T16:37:52.389Z,82.40
2022-11-05T16:41:19.392Z,82.15
2022-11-05T16:44:41.264Z,82.50
2022-11-05T16:48:03.334Z,82.93
2022-11-05T16:51:27.511Z,83.29
2022-11-05T16:54:50.631Z,83.44
2022-11-05T16:58:19.924Z,83.04
2022-11-05T17:01:44.614Z,82.84
2022-11-05T17:05:08.837Z,82.81
2022-11-05T17:08:30.974Z,82.77
2022-11-05T17:11:54.608Z,82.71
2022-11-05T17:15:22.962Z,82.81
2022-11-05T17:18:45.031Z,82.91
2022-11-05T17:22:06.928Z,82.85
2022-11-05T17:25:29.641Z,83.35
2022-11-05T17:28:52.820Z,83.20
2022-11-05T17:32:14.868Z,83.05
2022-11-05T17:35:39.645Z,83.47
2022-11-05T17:39:01.748Z,83.37
2022-11-05T17:42:23.387Z,83.32
2022-11-05T17:45:49.768Z,83.23
2022-11-05T17:49:11.749Z,83.24
2022-11-05T17:52:33.869Z,83.22
2022-11-05T17:55:55.904Z,83.05
2022-11-05T17:59:17.963Z,83.42
2022-11-05T18:02:41.823Z,83.56
2022-11-05T18:06:05.127Z,83.48
2022-11-05T18:09:26.999Z,83.31
2022-11-05T18:12:49.654Z,83.50
2022-11-05T18:16:11.985Z,83.25
2022-11-05T18:19:37.398Z,83.31
2022-11-05T18:22:59.340Z,83.13
2022-11-05T18:26:21.738Z,83.24
2022-11-05T18:29:43.624Z,83.54
2022-11-05T18:33:05.709Z,83.31
2022-11-05T18:36:31.632Z,83.13
2022-11-05T18:39:54.914Z,83.44
2022-11-05T18:43:16.875Z,83.66
2022-11-05T18:50:20.759Z,84.02
2022-11-05T18:53:44.807Z,84.10
2022-11-05T18:57:07.246Z,84.50
2022-11-05T19:00:29.546Z,84.84
2022-11-05T19:07:16.788Z,85.17
2022-11-05T19:10:42.367Z,86.00
2022-11-05T19:14:04.234Z,85.47
2022-11-05T19:17:26.629Z,86.54
2022-11-05T19:20:49.169Z,86.56
2022-11-05T19:24:16.862Z,86.78
2022-11-05T19:27:41.209Z,86.85
2022-11-05T19:31:03.895Z,87.30
2022-11-05T19:34:26.032Z,87.88
2022-11-05T19:37:47.571Z,88.33
2022-11-05T19:41:14.094Z,87.85
2022-11-05T19:44:37.608Z,88.15
2022-11-05T19:47:59.390Z,89.29
2022-11-05T19:51:24.031Z,88.57
2022-11-05T19:54:46.739Z,88.68
2022-11-05T19:58:09.561Z,88.95
2022-11-05T20:01:34.063Z,89.18
2022-11-05T20:04:55.810Z,89.27
2022-11-05T20:08:18.043Z,89.52
2022-11-05T20:11:40.660Z,90.30
2022-11-05T20:15:02.892Z,90.56
2022-11-05T20:18:27.539Z,90.34
2022-11-05T20:21:49.143Z,89.96
2022-11-05T20:25:11.575Z,90.01
2022-11-05T20:28:33.931Z,89.83
2022-11-05T20:31:57.965Z,89.93
2022-11-05T20:35:21.269Z,90.10
2022-11-05T20:38:43.517Z,90.07
2022-11-05T20:42:05.148Z,90.48
2022-11-05T20:45:27.242Z,90.98
2022-11-05T20:48:49.960Z,91.11
2022-11-05T20:52:16.995Z,91.42
2022-11-05T20:55:44.125Z,91.91
2022-11-05T20:59:06.686Z,91.84
2022-11-05T21:02:28.918Z,92.10
2022-11-05T21:05:54.562Z,92.66
2022-11-05T21:09:18.077Z,92.90
2022-11-05T21:12:40.326Z,92.98
2022-11-05T21:16:02.659Z,92.85
2022-11-05T21:19:24.874Z,93.08
2022-11-05T21:22:47.496Z,93.21
2022-11-05T21:26:13.243Z,93.23
2022-11-05T21:29:34.944Z,93.54
2022-11-05T21:32:57.090Z,93.56
2022-11-05T21:36:19.097Z,93.59
2022-11-05T21:39:41.082Z,93.68
2022-11-05T21:43:04.599Z,93.83
2022-11-05T21:46:26.786Z,94.02
2022-11-05T21:49:48.779Z,94.16
2022-11-05T21:53:32.039Z,94.15
2022-11-05T21:57:11.499Z,94.20
2022-11-05T22:00:34.693Z,94.74
2022-11-05T22:04:00.394Z,94.86
2022-11-05T22:07:26.509Z,95.29
2022-11-05T22:10:48.625Z,95.58
2022-11-05T22:14:10.340Z,95.66
2022-11-05T22:17:34.080Z,95.29
2022-11-05T22:20:55.918Z,95.53
2022-11-05T22:24:18.155Z,95.72
2022-11-05T22:27:40.404Z,95.61
2022-11-05T22:31:02.417Z,96.02
2022-11-05T22:34:26.222Z,95.51
2022-11-05T22:37:48.261Z,95.88
2022-11-05T22:41:10.910Z,95.72
2022-11-05T22:44:32.417Z,95.83
2022-11-05T22:47:54.485Z,96.16
2022-11-05T22:51:19.712Z,95.71
2022-11-05T22:54:41.386Z,96.14
2022-11-05T22:58:03.355Z,96.22
2022-11-05T23:01:26.349Z,96.48
2022-11-05T23:04:49.608Z,96.44
2022-11-05T23:08:30.539Z,96.19
2022-11-05T23:11:57.397Z,96.39
2022-11-05T23:15:32.969Z,96.39
2022-11-05T23:19:12.377Z,96.50
2022-11-05T23:22:52.027Z,96.65
2022-11-05T23:26:32.751Z,96.56
2022-11-05T23:29:54.960Z,96.96
2022-11-05T23:33:16.945Z,96.83
2022-11-05T23:36:56.645Z,96.58
2022-11-05T23:40:20.504Z,96.94
2022-11-05T23:44:01.145Z,96.97
2022-11-05T23:47:40.702Z,96.79
2022-11-05T23:51:04.077Z,97.07
2022-11-05T23:54:25.880Z,96.94
2022-11-05T23:57:47.839Z,97.07
